Time;durP1;ratioP1;P1;durP2;ratioP2;P2;SDS_P1;SDS_P2;PMS_P1;PMS_P2;Temp;Humidity;BMP_temperature;BMP_pressure;BME280_temperature;BME280_humidity;BME280_pressure;Samples;Min_cycle;Max_cycle;Signal;HPM_P1;HPM_P2
2024/03/26 00:00:10;;;;;;;48.90;28.20;;;;;;;5.37;95.40;99760.83;105753;1256;103267;-77
2024/03/26 00:03:16;;;;;;;53.00;28.20;;;;;;;5.31;95.29;99761.40;106001;1258;102204;-78
2024/03/26 00:06:01;;;;;;;46.10;27.60;;;;;;;5.26;95.16;99764.80;105670;1260;99264;-78
2024/03/26 00:08:47;;;;;;;41.80;25.50;;;;;;;5.23;95.42;99766.08;105687;1259;99233;-78
2024/03/26 00:11:32;;;;;;;40.80;25.20;;;;;;;5.19;95.73;99767.16;105852;1257;98400;-77
2024/03/26 00:14:18;;;;;;;43.80;25.20;;;;;;;5.16;95.85;99766.31;105840;1270;103038;-77
2024/03/26 00:17:04;;;;;;;44.40;27.20;;;;;;;5.12;95.57;99766.05;105706;1253;99109;-77
2024/03/26 00:19:49;;;;;;;43.00;26.30;;;;;;;5.08;95.49;99768.27;105720;1257;97867;-76
2024/03/26 00:22:35;;;;;;;48.50;26.20;;;;;;;5.03;95.19;99770.23;105781;1254;98088;-78
2024/03/26 00:25:20;;;;;;;44.50;26.60;;;;;;;5.00;95.20;99768.09;105762;1258;98463;-78
2024/03/26 00:28:06;;;;;;;46.50;27.60;;;;;;;4.97;95.09;99769.90;105716;1254;102712;-76
2024/03/26 00:30:57;;;;;;;40.10;24.50;;;;;;;4.92;95.11;99771.67;105719;1257;100332;-78
2024/03/26 00:33:42;;;;;;;;;;;;;;;4.88;95.29;99777.59;105956;1253;99085;-79
2024/03/26 00:36:28;;;;;;;38.20;22.50;;;;;;;4.83;95.01;99782.65;105728;1260;98947;-78
2024/03/26 00:39:14;;;;;;;35.60;22.30;;;;;;;4.80;95.07;99789.52;105920;1256;98553;-79
2024/03/26 00:42:00;;;;;;;38.40;23.20;;;;;;;4.77;94.97;99795.55;105942;1256;101375;-77
2024/03/26 00:44:45;;;;;;;45.00;25.70;;;;;;;4.75;95.37;99798.59;105683;1260;100294;-77
2024/03/26 00:47:31;;;;;;;46.60;25.60;;;;;;;4.76;95.91;99802.52;105605;1257;98998;-76
2024/03/26 00:50:18;;;;;;;44.60;25.40;;;;;;;4.75;96.19;99801.70;105917;1256;98045;-77
2024/03/26 00:53:03;;;;;;;41.00;25.40;;;;;;;4.72;96.20;99804.52;106676;1257;98506;-78
2024/03/26 00:55:49;;;;;;;38.60;25.20;;;;;;;4.69;96.58;99807.80;105887;1254;101307;-77
2024/03/26 00:58:34;;;;;;;42.80;24.70;;;;;;;4.65;96.63;99809.70;105650;1257;99715;-77
2024/03/26 01:01:20;;;;;;;38.80;23.90;;;;;;;4.63;96.82;99813.70;105635;1259;98025;-78
2024/03/26 01:04:05;;;;;;;50.10;25.90;;;;;;;4.60;96.93;99818.03;105988;1259;97984;-79
2024/03/26 01:06:51;;;;;;;39.40;23.90;;;;;;;4.58;97.30;99820.55;106120;1259;98456;-79
2024/03/26 01:09:36;;;;;;;43.40;24.70;;;;;;;4.56;97.48;99821.45;106036;1258;101370;-79
2024/03/26 01:12:21;;;;;;;48.80;26.10;;;;;;;4.55;97.64;99822.18;105791;1257;99123;-76
2024/03/26 01:15:07;;;;;;;35.70;22.30;;;;;;;4.53;97.89;99823.09;105953;1258;98450;-78
2024/03/26 01:17:53;;;;;;;38.80;24.00;;;;;;;4.51;98.17;99823.85;105882;1261;97891;-78
2024/03/26 01:20:38;;;;;;;41.60;23.20;;;;;;;4.49;98.20;99824.98;105849;1260;97990;-77
2024/03/26 01:23:24;;;;;;;45.70;25.20;;;;;;;4.48;98.32;99824.55;105741;1257;102665;-78
2024/03/26 01:26:10;;;;;;;41.60;24.00;;;;;;;4.46;98.42;99826.33;105744;1258;100052;-78
2024/03/26 01:28:55;;;;;;;42.20;23.90;;;;;;;4.44;98.36;99829.52;105764;1259;99419;-78
2024/03/26 01:31:41;;;;;;;41.20;25.00;;;;;;;4.42;98.34;99832.97;105694;1254;97962;-77
2024/03/26 01:34:26;;;;;;;47.30;26.20;;;;;;;4.39;98.17;99832.59;105589;1259;98062;-78
2024/03/26 01:37:12;;;;;;;43.50;24.50;;;;;;;4.36;98.33;99832.52;105537;1254;101333;-77
2024/03/26 01:39:57;;;;;;;43.30;25.40;;;;;;;4.34;98.47;99834.15;105659;1257;100035;-76
2024/03/26 01:42:43;;;;;;;42.00;26.20;;;;;;;4.32;98.50;99835.60;105678;1257;99560;-77
2024/03/26 01:45:29;;;;;;;42.50;24.40;;;;;;;4.30;98.54;99838.52;105686;1259;99224;-77
2024/03/26 01:48:15;;;;;;;43.80;25.80;;;;;;;4.28;98.55;99842.67;105604;1254;97874;-77
2024/03/26 01:51:01;;;;;;;44.00;25.70;;;;;;;4.26;98.45;99844.13;105670;1256;102588;-77
2024/03/26 01:53:48;;;;;;;42.50;24.60;;;;;;;4.24;98.62;99840.41;105765;1258;100392;-77
2024/03/26 01:56:34;;;;;;;43.20;25.10;;;;;;;4.22;98.80;99844.29;105786;1254;98069;-79
2024/03/26 01:59:19;;;;;;;40.40;23.80;;;;;;;4.22;98.78;99845.98;105718;1258;98570;-78
2024/03/26 02:02:05;;;;;;;38.10;24.20;;;;;;;4.19;98.66;99845.38;105723;1259;99759;-78
2024/03/26 02:04:51;;;;;;;37.70;23.30;;;;;;;4.15;98.38;99846.49;105727;1257;101356;-78
2024/03/26 02:07:37;;;;;;;40.10;24.20;;;;;;;4.11;98.19;99852.38;105694;1261;99113;-78
2024/03/26 02:10:23;;;;;;;38.80;23.50;;;;;;;4.08;98.11;99856.10;105926;1254;97977;-76
2024/03/26 02:13:09;;;;;;;48.00;25.30;;;;;;;4.07;98.16;99855.50;105605;1256;97958;-77
2024/03/26 02:15:54;;;;;;;44.40;24.80;;;;;;;4.06;98.26;99853.32;105672;1256;98394;-78
2024/03/26 02:18:40;;;;;;;41.50;24.40;;;;;;;4.04;98.25;99852.68;105785;1254;102422;-77
2024/03/26 02:21:25;;;;;;;41.10;23.80;;;;;;;4.01;97.96;99851.79;105743;1258;100351;-78
2024/03/26 02:24:10;;;;;;;38.80;23.50;;;;;;;3.98;97.67;99852.27;105727;1256;98956;-78
2024/03/26 02:26:56;;;;;;;38.40;22.50;;;;;;;3.94;97.65;99853.73;105683;1257;97963;-80
2024/03/26 02:29:41;;;;;;;40.20;24.90;;;;;;;3.90;97.78;99852.71;105749;1257;98400;-77
2024/03/26 02:32:27;;;;;;;41.90;25.50;;;;;;;3.88;97.58;99851.56;105690;1261;101349;-78
2024/03/26 02:35:12;;;;;;;45.10;25.20;;;;;;;3.87;97.50;99851.33;105809;1255;99090;-78
2024/03/26 02:37:58;;;;;;;40.00;23.00;;;;;;;3.83;97.52;99848.70;105780;1254;99185;-79
2024/03/26 02:40:43;;;;;;;43.90;26.50;;;;;;;3.79;97.56;99848.95;105834;1255;97995;-77
2024/03/26 02:43:31;;;;;;;48.50;26.70;;;;;;;3.75;97.33;99844.27;105862;1256;98457;-77
2024/03/26 02:46:17;;;;;;;64.70;38.80;;;;;;;3.71;97.12;99851.41;105746;1266;101317;-78
2024/03/26 02:49:02;;;;;;;59.70;34.70;;;;;;;3.68;96.83;99855.30;105790;1255;99172;-78
2024/03/26 02:51:48;;;;;;;52.30;31.90;;;;;;;3.65;96.76;99859.09;105676;1257;97980;-78
2024/03/26 02:54:33;;;;;;;47.70;26.90;;;;;;;3.64;96.85;99861.40;105826;1254;98851;-78
2024/03/26 02:57:19;;;;;;;42.00;25.20;;;;;;;3.61;96.81;99865.69;105770;1267;97896;-77
2024/03/26 03:00:05;;;;;;;41.20;24.40;;;;;;;3.57;96.99;99868.08;105734;1254;102352;-77
2024/03/26 03:02:51;;;;;;;40.50;23.80;;;;;;;3.54;97.15;99867.54;105808;1256;99702;-79
2024/03/26 03:05:38;;;;;;;35.60;22.50;;;;;;;3.50;97.08;99868.67;105708;1254;99891;-78
2024/03/26 03:08:23;;;;;;;39.60;23.50;;;;;;;3.47;97.22;99870.56;105848;1254;97947;-78
2024/03/26 03:11:09;;;;;;;38.30;23.70;;;;;;;3.43;97.21;99874.88;105977;1254;98663;-78
2024/03/26 03:13:54;;;;;;;40.90;23.70;;;;;;;3.37;97.23;99879.23;105856;1257;103251;-78
2024/03/26 03:16:40;;;;;;;46.40;24.10;;;;;;;3.34;97.30;99880.28;105772;1257;99143;-77
2024/03/26 03:19:25;;;;;;;44.70;23.30;;;;;;;3.32;97.35;99883.68;105869;1254;97965;-78
2024/03/26 03:22:11;;;;;;;42.10;23.70;;;;;;;3.29;97.41;99887.98;105779;1254;98176;-79
2024/03/26 03:24:57;;;;;;;42.90;24.20;;;;;;;3.28;97.43;99887.80;105871;1257;98506;-77
2024/03/26 03:27:42;;;;;;;40.30;23.90;;;;;;;3.26;97.53;99887.66;105680;1256;103099;-77
2024/03/26 03:30:28;;;;;;;41.70;24.40;;;;;;;3.24;97.66;99887.25;105891;1257;100232;-77
2024/03/26 03:33:13;;;;;;;42.60;25.30;;;;;;;3.23;97.65;99895.74;105763;1257;98005;-79
2024/03/26 03:36:00;;;;;;;43.70;27.00;;;;;;;3.21;97.65;99898.21;106027;1255;97954;-76
2024/03/26 03:38:45;;;;;;;46.10;25.90;;;;;;;3.18;97.71;99900.64;105759;1255;98607;-78
2024/03/26 03:41:31;;;;;;;43.60;25.00;;;;;;;3.16;97.74;99902.76;105772;1267;101425;-78
2024/03/26 03:44:16;;;;;;;47.10;26.40;;;;;;;3.13;97.59;99903.16;105800;1257;99247;-79
2024/03/26 03:47:03;;;;;;;45.00;26.40;;;;;;;3.11;97.50;99901.27;105875;1256;98992;-79
2024/03/26 03:49:48;;;;;;;41.70;24.90;;;;;;;3.09;97.35;99900.99;105847;1257;98031;-78
2024/03/26 03:52:34;;;;;;;49.80;26.20;;;;;;;3.07;97.42;99904.68;105744;1256;98857;-77
2024/03/26 03:55:19;;;;;;;40.60;23.40;;;;;;;3.06;97.41;99898.85;105750;1254;102568;-78
2024/03/26 03:58:05;;;;;;;45.20;25.70;;;;;;;3.04;97.48;99903.80;105717;1257;100348;-78
2024/03/26 04:00:51;;;;;;;37.50;22.50;;;;;;;3.01;97.34;99906.17;105779;1257;98977;-77
2024/03/26 04:03:37;;;;;;;50.90;25.90;;;;;;;2.98;97.21;99909.18;105916;1257;97942;-78
2024/03/26 04:06:22;;;;;;;53.80;26.50;;;;;;;2.96;97.34;99911.48;105861;1257;97763;-78
2024/03/26 04:09:08;;;;;;;57.60;27.70;;;;;;;2.92;97.19;99914.87;105745;1254;102246;-79
2024/03/26 04:11:53;;;;;;;52.50;26.40;;;;;;;2.88;97.05;99919.67;106138;1256;99181;-79
2024/03/26 04:14:38;;;;;;;52.00;26.20;;;;;;;2.85;96.96;99928.48;106131;1257;99336;-79
2024/03/26 04:17:24;;;;;;;48.10;24.60;;;;;;;2.83;97.12;99922.41;105811;1257;98046;-77
2024/03/26 04:20:10;;;;;;;48.10;26.30;;;;;;;2.81;97.19;99921.46;105760;1254;98439;-78
2024/03/26 04:22:56;;;;;;;49.80;24.60;;;;;;;2.80;97.14;99924.80;105945;1257;102098;-80
2024/03/26 04:25:41;;;;;;;51.10;25.30;;;;;;;2.77;97.18;99927.56;106087;1257;99133;-79
2024/03/26 04:28:28;;;;;;;41.80;25.10;;;;;;;2.73;97.19;99933.56;106015;1254;97981;-80
2024/03/26 04:31:14;;;;;;;44.90;25.00;;;;;;;2.71;97.38;99932.19;106156;1254;98002;-80
2024/03/26 04:34:00;;;;;;;44.90;24.70;;;;;;;2.70;97.59;99933.40;106239;1257;96946;-79
2024/03/26 04:36:45;;;;;;;40.80;20.80;;;;;;;2.67;97.48;99933.53;106337;1257;102625;-78
2024/03/26 04:39:31;;;;;;;40.30;24.30;;;;;;;2.65;97.63;99933.91;106148;1257;100310;-79
2024/03/26 04:42:16;;;;;;;49.40;26.10;;;;;;;2.63;97.75;99934.77;106075;1257;98398;-77
2024/03/26 04:45:03;;;;;;;52.80;27.90;;;;;;;2.63;97.82;99932.65;105891;1257;98038;-78
2024/03/26 04:47:49;;;;;;;49.20;28.60;;;;;;;2.62;97.92;99930.66;105809;1257;98468;-77
2024/03/26 04:50:34;;;;;;;47.50;27.00;;;;;;;2.61;98.02;99933.44;105769;1254;101372;-77
2024/03/26 04:53:19;;;;;;;45.80;24.90;;;;;;;2.61;98.27;99940.08;105932;1254;99279;-77
2024/03/26 04:56:05;;;;;;;45.50;26.50;;;;;;;2.61;98.73;99941.12;105878;1256;98461;-78
2024/03/26 04:58:51;;;;;;;43.80;25.50;;;;;;;2.63;98.98;99939.19;105781;1254;97974;-77
2024/03/26 05:01:37;;;;;;;43.20;24.50;;;;;;;2.66;99.12;99941.06;105723;1257;97886;-79
2024/03/26 05:04:22;;;;;;;39.50;23.70;;;;;;;2.65;99.12;99944.61;105818;1257;102529;-79
2024/03/26 05:07:07;;;;;;;43.20;23.90;;;;;;;2.65;99.33;99946.09;105783;1254;99239;-79
2024/03/26 05:09:52;;;;;;;43.80;25.60;;;;;;;2.65;99.32;99946.91;105808;1254;98966;-79
2024/03/26 05:12:38;;;;;;;43.70;25.40;;;;;;;2.66;99.35;99949.16;105838;1257;97906;-80
2024/03/26 05:15:24;;;;;;;45.70;26.00;;;;;;;2.67;99.71;99952.05;105997;1255;97684;-78
2024/03/26 05:18:09;;;;;;;46.00;26.00;;;;;;;2.69;99.91;99951.85;106002;1252;102596;-79
2024/03/26 05:20:54;;;;;;;49.30;27.60;;;;;;;2.69;100.00;99954.45;105974;1257;99111;-76
2024/03/26 05:23:40;;;;;;;48.70;28.30;;;;;;;2.68;100.00;99962.27;105685;1254;99227;-78
2024/03/26 05:26:25;;;;;;;49.80;30.20;;;;;;;2.71;100.00;99964.70;105765;1254;97942;-78
2024/03/26 05:29:11;;;;;;;50.90;27.70;;;;;;;2.73;100.00;99962.31;105704;1254;97949;-79
2024/03/26 05:31:56;;;;;;;50.50;29.80;;;;;;;2.75;100.00;99960.69;105978;1257;102730;-78
2024/03/26 05:34:41;;;;;;;53.10;29.70;;;;;;;2.78;100.00;99957.80;105917;1254;99102;-78
2024/03/26 05:37:27;;;;;;;53.50;29.00;;;;;;;2.81;100.00;99955.89;105882;1260;97999;-80
2024/03/26 05:40:14;;;;;;;54.30;29.40;;;;;;;2.84;100.00;99955.04;106014;1253;97978;-79
2024/03/26 05:42:59;;;;;;;55.70;30.20;;;;;;;2.86;100.00;99960.34;105886;1254;99179;-78
2024/03/26 05:45:45;;;;;;;50.10;28.70;;;;;;;2.89;100.00;99959.09;105778;1257;101369;-77
2024/03/26 05:48:30;;;;;;;58.30;32.80;;;;;;;2.93;100.00;99958.88;105819;1254;99584;-77
2024/03/26 05:51:16;;;;;;;55.50;30.40;;;;;;;2.96;100.00;99961.91;105726;1253;98884;-79
2024/03/26 05:54:01;;;;;;;56.30;32.30;;;;;;;2.99;100.00;99968.02;105773;1258;97869;-78
2024/03/26 05:56:47;;;;;;;58.10;31.10;;;;;;;3.00;100.00;99965.75;105720;1257;99656;-77
2024/03/26 05:59:32;;;;;;;57.00;32.40;;;;;;;3.01;100.00;99966.19;105710;1257;101355;-77
2024/03/26 06:02:18;;;;;;;62.10;34.40;;;;;;;3.04;100.00;99970.81;105800;1254;101317;-78
2024/03/26 06:05:04;;;;;;;53.50;32.00;;;;;;;3.09;100.00;99976.11;105888;1254;99044;-86
2024/03/26 06:07:50;;;;;;;53.50;32.80;;;;;;;3.15;100.00;99977.96;106501;1253;98155;-84
2024/03/26 06:10:36;;;;;;;59.20;33.30;;;;;;;3.21;100.00;99979.15;106584;1253;98584;-83
2024/03/26 06:13:22;;;;;;;56.70;33.00;;;;;;;3.27;100.00;99985.95;106679;1257;101668;-82
2024/03/26 06:16:09;;;;;;;56.30;32.20;;;;;;;3.34;100.00;99990.53;106384;1256;100322;-83
2024/03/26 06:18:55;;;;;;;60.20;32.30;;;;;;;3.40;100.00;99994.52;106225;1258;99344;-83
2024/03/26 06:21:42;;;;;;;52.60;31.80;;;;;;;3.46;100.00;99999.04;106427;1253;99201;-84
2024/03/26 06:24:28;;;;;;;55.30;32.00;;;;;;;3.52;100.00;99997.48;106364;1253;97792;-83
2024/03/26 06:27:14;;;;;;;62.00;32.60;;;;;;;3.59;100.00;99996.41;106420;1258;102560;-82
2024/03/26 06:30:01;;;;;;;58.10;33.40;;;;;;;3.65;100.00;100004.63;106573;1253;100249;-83
2024/03/26 06:32:50;;;;;;;57.30;34.70;;;;;;;3.71;100.00;100005.42;106310;1253;98881;-82
2024/03/26 06:35:36;;;;;;;61.60;34.80;;;;;;;3.78;100.00;100005.06;106211;1258;97952;-83
2024/03/26 06:38:23;;;;;;;55.00;33.90;;;;;;;3.85;100.00;100007.25;106421;1257;98505;-85
2024/03/26 06:41:09;;;;;;;64.40;36.40;;;;;;;3.94;100.00;100008.88;106908;1257;102034;-80
2024/03/26 06:43:55;;;;;;;60.10;33.90;;;;;;;4.02;100.00;100007.29;106684;1253;100489;-81
2024/03/26 06:46:40;;;;;;;59.40;33.80;;;;;;;4.10;100.00;100006.73;106434;1257;97967;-83
2024/03/26 06:49:26;;;;;;;57.80;32.80;;;;;;;4.19;100.00;100005.08;106208;1253;98709;-82
2024/03/26 06:52:13;;;;;;;57.50;33.90;;;;;;;4.27;100.00;100007.59;106429;1257;97752;-84
2024/03/26 06:54:58;;;;;;;62.70;37.50;;;;;;;4.34;100.00;100005.06;106384;1254;102614;-83
2024/03/26 06:57:45;;;;;;;62.00;35.90;;;;;;;4.41;100.00;100009.52;106617;1252;101345;-85
2024/03/26 07:00:31;;;;;;;60.00;35.90;;;;;;;4.48;100.00;100011.05;106445;1259;98581;-84
2024/03/26 07:03:17;;;;;;;58.10;36.10;;;;;;;4.55;100.00;100011.14;106501;1253;97964;-85
2024/03/26 07:06:06;;;;;;;61.50;35.70;;;;;;;4.65;100.00;100012.73;106929;1254;98415;-87
2024/03/26 07:08:57;;;;;;;59.20;35.80;;;;;;;4.74;100.00;100008.80;107013;1253;103458;-89
2024/03/26 07:11:44;;;;;;;64.10;36.50;;;;;;;4.82;100.00;100011.65;106477;1253;99180;-85
2024/03/26 07:14:30;;;;;;;61.40;36.30;;;;;;;4.90;100.00;100009.48;106635;1253;98916;-86
2024/03/26 07:17:17;;;;;;;61.30;35.60;;;;;;;5.00;100.00;100009.09;106424;1254;97960;-86
2024/03/26 07:20:03;;;;;;;67.80;37.00;;;;;;;5.10;100.00;100006.95;106543;1253;97968;-86
2024/03/26 07:22:50;;;;;;;71.40;36.00;;;;;;;5.18;100.00;100007.26;106334;1257;102733;-84
2024/03/26 07:25:36;;;;;;;70.50;36.50;;;;;;;5.25;100.00;100007.91;106525;1253;100376;-86
2024/03/26 07:28:23;;;;;;;70.10;35.70;;;;;;;5.32;100.00;100008.06;106516;1253;99111;-88
2024/03/26 07:31:09;;;;;;;70.20;38.50;;;;;;;5.37;100.00;100012.85;106653;1258;97774;-80
2024/03/26 07:33:54;;;;;;;69.00;37.50;;;;;;;5.43;100.00;100014.45;105705;1253;97881;-78
2024/03/26 07:36:41;;;;;;;75.20;39.80;;;;;;;5.50;100.00;100016.36;106669;1256;102515;-88
2024/03/26 07:39:27;;;;;;;74.40;38.50;;;;;;;5.56;100.00;100018.03;106630;1253;99634;-84
2024/03/26 07:42:13;;;;;;;68.40;37.70;;;;;;;5.57;100.00;100019.48;106470;1255;99548;-83
2024/03/26 07:44:59;;;;;;;77.00;40.80;;;;;;;5.53;100.00;100023.83;106501;1261;99351;-85
2024/03/26 07:47:45;;;;;;;87.20;45.10;;;;;;;5.50;100.00;100029.26;106378;1254;99836;-81
2024/03/26 07:50:32;;;;;;;72.00;40.60;;;;;;;5.52;100.00;100026.55;106762;1253;104054;-88
2024/03/26 07:53:18;;;;;;;78.40;43.90;;;;;;;5.59;100.00;100022.95;106316;1254;101341;-82
2024/03/26 07:56:07;;;;;;;73.30;41.30;;;;;;;5.69;100.00;100024.35;106771;1253;97647;-84
2024/03/26 07:58:53;;;;;;;63.60;37.20;;;;;;;5.80;100.00;100024.46;106596;1256;99875;-86
2024/03/26 08:01:40;;;;;;;59.20;34.10;;;;;;;5.87;100.00;100026.20;106320;1253;100472;-86
2024/03/26 08:04:26;;;;;;;60.60;35.30;;;;;;;5.93;100.00;100027.45;106471;1259;104050;-86
2024/03/26 08:07:12;;;;;;;50.90;32.60;;;;;;;6.02;100.00;100023.14;106403;1254;100501;-82
2024/03/26 08:09:58;;;;;;;51.50;29.70;;;;;;;6.11;100.00;100019.40;106572;1253;99424;-85
2024/03/26 08:12:46;;;;;;;51.40;29.60;;;;;;;6.20;100.00;100019.27;106709;1254;99217;-85
2024/03/26 08:15:32;;;;;;;55.30;32.20;;;;;;;6.24;100.00;100020.21;106525;1253;99308;-82
2024/03/26 08:18:18;;;;;;;48.00;29.40;;;;;;;6.29;100.00;100013.28;106219;1253;104052;-83
2024/03/26 08:21:04;;;;;;;51.70;30.70;;;;;;;6.36;100.00;100008.55;106467;1253;100438;-81
2024/03/26 08:23:49;;;;;;;53.00;31.70;;;;;;;6.45;100.00;100006.25;106468;1253;99234;-86
2024/03/26 08:26:35;;;;;;;58.40;33.60;;;;;;;6.50;100.00;100003.64;106600;1257;99327;-82
2024/03/26 08:29:21;;;;;;;55.00;34.20;;;;;;;6.52;100.00;99999.59;106757;1253;99284;-84
2024/03/26 08:32:07;;;;;;;55.80;32.90;;;;;;;6.60;100.00;99995.81;106812;1252;102661;-79
2024/03/26 08:34:52;;;;;;;52.50;32.10;;;;;;;6.69;100.00;99993.20;106128;1253;99220;-86
2024/03/26 08:37:37;;;;;;;55.60;33.70;;;;;;;6.78;100.00;99987.67;106023;1254;99303;-78
2024/03/26 08:40:23;;;;;;;50.70;32.50;;;;;;;6.85;100.00;99985.39;105938;1259;99371;-77
2024/03/26 08:43:08;;;;;;;52.00;31.50;;;;;;;6.92;100.00;99982.81;105819;1253;99744;-77
2024/03/26 08:45:54;;;;;;;55.10;33.60;;;;;;;7.00;100.00;99980.61;105867;1257;103225;-77
2024/03/26 08:48:40;;;;;;;53.20;32.10;;;;;;;7.09;100.00;99980.89;105607;1253;100514;-77
2024/03/26 08:51:28;;;;;;;60.30;33.60;;;;;;;7.18;100.00;99980.73;105625;1255;99318;-77
2024/03/26 08:54:13;;;;;;;60.70;34.40;;;;;;;7.27;100.00;99978.19;105529;1259;99163;-77
2024/03/26 08:56:59;;;;;;;52.40;30.70;;;;;;;7.36;100.00;99973.58;105463;1253;99756;-78
2024/03/26 08:59:44;;;;;;;55.20;32.50;;;;;;;7.43;100.00;99973.91;105607;1257;102704;-78
2024/03/26 09:02:30;;;;;;;50.70;30.00;;;;;;;7.51;100.00;99977.80;105573;1254;100117;-78
2024/03/26 09:05:16;;;;;;;54.00;31.30;;;;;;;7.57;100.00;99973.63;105714;1256;99300;-77
2024/03/26 09:08:01;;;;;;;47.40;28.80;;;;;;;7.66;100.00;99975.80;105603;1253;99202;-77
2024/03/26 09:10:47;;;;;;;42.90;25.30;;;;;;;7.74;100.00;99970.14;105561;1253;99962;-76
2024/03/26 09:13:35;;;;;;;49.30;27.50;;;;;;;7.85;100.00;99968.23;105616;1253;104076;-78
2024/03/26 09:16:20;;;;;;;38.80;24.10;;;;;;;7.95;100.00;99965.20;106763;1252;99348;-75
2024/03/26 09:19:06;;;;;;;41.20;25.10;;;;;;;8.03;100.00;99958.17;105747;1253;99336;-76
2024/03/26 09:21:52;;;;;;;36.50;22.90;;;;;;;8.12;100.00;99955.29;105600;1256;99949;-77
2024/03/26 09:24:38;;;;;;;38.20;23.30;;;;;;;8.20;100.00;99953.30;105519;1254;99923;-78
2024/03/26 09:27:24;;;;;;;32.20;20.70;;;;;;;8.29;100.00;99951.92;105693;1257;102612;-78
2024/03/26 09:30:10;;;;;;;30.00;20.10;;;;;;;8.36;100.00;99954.43;105507;1253;100423;-77
2024/03/26 09:32:56;;;;;;;34.20;21.70;;;;;;;8.43;100.00;99950.92;105546;1254;100511;-78
2024/03/26 09:35:41;;;;;;;25.60;16.80;;;;;;;8.51;100.00;99946.80;105552;1253;99318;-77
2024/03/26 09:38:27;;;;;;;25.50;17.20;;;;;;;8.62;100.00;99949.78;105410;1254;99283;-77
2024/03/26 09:41:19;;;;;;;24.00;16.30;;;;;;;8.71;100.00;99947.07;105767;1256;102857;-77
2024/03/26 09:44:05;;;;;;;27.50;16.50;;;;;;;8.81;100.00;99945.81;105870;1252;100466;-77
2024/03/26 09:46:51;;;;;;;25.80;17.30;;;;;;;8.91;100.00;99946.12;105520;1253;99383;-77
2024/03/26 09:49:39;;;;;;;24.10;16.00;;;;;;;9.00;100.00;99938.65;105740;1257;99322;-77
2024/03/26 09:52:26;;;;;;;22.90;14.50;;;;;;;9.11;100.00;99930.85;105729;1253;99913;-77
2024/03/26 09:55:13;;;;;;;21.10;14.40;;;;;;;9.25;100.00;99931.36;105704;1254;103952;-78
2024/03/26 09:57:58;;;;;;;18.20;12.60;;;;;;;9.41;100.00;99925.64;105583;1253;99916;-77
2024/03/26 10:00:49;;;;;;;16.30;11.70;;;;;;;9.52;100.00;99923.28;105700;1253;99937;-78
2024/03/26 10:03:35;;;;;;;16.30;10.30;;;;;;;9.64;100.00;99919.70;105639;1252;99343;-77
2024/03/26 10:06:20;;;;;;;13.70;10.10;;;;;;;9.77;100.00;99915.40;105799;1253;99728;-77
2024/03/26 10:09:07;;;;;;;16.10;10.60;;;;;;;9.93;100.00;99914.00;106259;1252;103659;-78
2024/03/26 10:11:52;;;;;;;13.40;9.30;;;;;;;10.08;100.00;99913.05;105933;1253;99361;-77
2024/03/26 10:14:39;;;;;;;17.30;9.70;;;;;;;10.25;98.64;99911.69;105885;1257;106332;-78
2024/03/26 10:17:27;;;;;;;13.00;8.80;;;;;;;10.31;97.81;99907.30;105873;1257;99309;-78
2024/03/26 10:20:12;;;;;;;11.30;7.50;;;;;;;10.42;97.68;99908.48;105968;1253;99788;-78
2024/03/26 10:22:59;;;;;;;10.90;8.00;;;;;;;10.52;97.07;99908.21;105670;1253;103441;-78
2024/03/26 10:25:45;;;;;;;12.00;8.00;;;;;;;10.64;96.55;99905.93;105822;1252;100351;-77
2024/03/26 10:28:31;;;;;;;11.20;8.50;;;;;;;10.75;95.62;99898.58;105581;1253;99308;-77
2024/03/26 10:31:19;;;;;;;9.80;7.20;;;;;;;10.76;94.89;99895.68;105492;1257;99323;-77
2024/03/26 10:34:05;;;;;;;10.20;7.40;;;;;;;10.72;93.44;99897.40;105559;1253;99610;-76
2024/03/26 10:36:57;;;;;;;7.70;5.90;;;;;;;10.69;92.71;99893.25;105528;1266;103328;-77
2024/03/26 10:39:46;;;;;;;7.20;5.50;;;;;;;10.70;92.30;99892.09;108566;1254;99226;-78
2024/03/26 10:42:39;;;;;;;7.80;5.50;;;;;;;10.84;93.46;99890.03;106737;1257;99286;-77
2024/03/26 10:45:26;;;;;;;6.30;4.50;;;;;;;11.05;92.69;99891.52;105575;1253;99235;-77
2024/03/26 10:48:13;;;;;;;5.60;4.20;;;;;;;11.20;91.11;99889.77;106019;1253;99328;-77
2024/03/26 10:50:59;;;;;;;6.30;5.10;;;;;;;11.24;89.11;99890.73;105960;1252;104015;-77
2024/03/26 10:53:47;;;;;;;12.30;9.80;;;;;;;11.23;88.82;99893.57;105574;1252;99322;-77
2024/03/26 10:56:33;;;;;;;5.20;4.60;;;;;;;11.26;87.96;99893.08;105335;1257;99310;-79
2024/03/26 10:59:20;;;;;;;5.80;4.50;;;;;;;11.31;87.03;99890.99;105627;1257;99313;-77
2024/03/26 11:02:08;;;;;;;6.00;4.60;;;;;;;11.36;87.12;99888.32;105599;1257;99653;-77
2024/03/26 11:04:53;;;;;;;8.40;5.70;;;;;;;11.41;87.16;99883.98;105872;1254;103553;-78
2024/03/26 11:07:42;;;;;;;8.90;5.20;;;;;;;11.46;86.54;99883.48;105566;1254;100339;-77
2024/03/26 11:10:28;;;;;;;6.50;4.10;;;;;;;11.49;85.23;99881.40;105694;1257;99318;-78
2024/03/26 11:13:15;;;;;;;6.50;4.00;;;;;;;11.52;84.68;99875.54;105625;1253;99268;-77
2024/03/26 11:16:05;;;;;;;5.10;4.00;;;;;;;11.54;83.53;99868.23;105493;1253;100966;-77
2024/03/26 11:18:50;;;;;;;5.20;4.10;;;;;;;11.58;83.79;99868.84;105580;1257;102681;-78
2024/03/26 11:21:42;;;;;;;7.90;4.50;;;;;;;11.62;83.57;99863.86;105512;1257;99403;-77
2024/03/26 11:24:35;;;;;;;5.00;4.10;;;;;;;11.69;83.70;99858.71;106110;1258;99237;-78
2024/03/26 11:27:21;;;;;;;6.50;4.50;;;;;;;11.76;83.32;99858.36;106637;1252;99333;-77
2024/03/26 11:30:07;;;;;;;6.00;4.10;;;;;;;11.81;82.74;99856.53;105822;1257;99291;-82
2024/03/26 11:32:53;;;;;;;5.90;4.60;;;;;;;11.86;82.51;99853.71;106429;1255;102691;-74
2024/03/26 11:35:45;;;;;;;6.90;4.70;;;;;;;11.91;82.50;99852.61;107328;1253;99643;-88
2024/03/26 11:38:32;;;;;;;5.90;4.40;;;;;;;11.96;81.96;99850.61;107007;1254;99306;-80
2024/03/26 11:41:19;;;;;;;5.60;4.30;;;;;;;11.98;81.47;99847.54;106822;1257;100473;-80
2024/03/26 11:44:09;;;;;;;4.80;3.90;;;;;;;12.01;81.14;99850.98;106825;1253;97708;-90
2024/03/26 11:46:57;;;;;;;6.30;3.80;;;;;;;12.05;80.51;99854.27;106897;1254;104024;-90
2024/03/26 11:49:47;;;;;;;5.80;4.00;;;;;;;12.10;80.31;99855.65;106872;1253;101405;-88
2024/03/26 11:52:38;;;;;;;5.00;4.20;;;;;;;12.14;80.31;99851.66;106860;1253;99328;-85
2024/03/26 11:55:29;;;;;;;5.00;3.50;;;;;;;12.16;79.68;99848.85;106608;1257;99289;-91
2024/03/26 11:58:17;;;;;;;4.90;4.20;;;;;;;12.18;79.36;99845.65;106312;1256;99437;-82
2024/03/26 12:01:03;;;;;;;4.80;3.60;;;;;;;12.23;78.71;99846.36;106699;1253;102658;-87
2024/03/26 12:04:03;;;;;;;4.30;3.70;;;;;;;12.28;78.14;99842.84;106771;1253;100477;-91
2024/03/26 12:06:50;;;;;;;4.70;3.50;;;;;;;12.31;76.91;99841.70;106725;1253;99998;-81
2024/03/26 12:09:36;;;;;;;5.20;3.60;;;;;;;12.36;76.25;99831.66;106806;1254;99904;-84
2024/03/26 12:12:22;;;;;;;4.60;3.90;;;;;;;12.41;76.05;99829.94;106390;1257;100706;-81
2024/03/26 12:15:11;;;;;;;5.60;3.40;;;;;;;12.45;75.88;99823.92;106296;1253;102726;-84
2024/03/26 12:17:57;;;;;;;8.90;4.60;;;;;;;12.49;76.26;99824.10;106170;1253;99319;-83
2024/03/26 12:20:43;;;;;;;5.70;3.50;;;;;;;12.55;76.20;99823.81;106188;1256;100341;-85
2024/03/26 12:23:30;;;;;;;5.90;3.60;;;;;;;12.61;76.24;99821.52;106275;1263;99321;-87
2024/03/26 12:26:16;;;;;;;3.30;2.80;;;;;;;12.67;74.88;99821.02;106409;1255;99754;-86
2024/03/26 12:29:02;;;;;;;3.40;2.40;;;;;;;12.74;74.76;99818.91;106289;1258;105019;-86
2024/03/26 12:31:50;;;;;;;5.20;2.50;;;;;;;12.80;74.41;99814.75;106175;1254;100200;-89
2024/03/26 12:34:36;;;;;;;3.70;2.60;;;;;;;12.87;74.60;99813.04;105842;1253;99360;-80
2024/03/26 12:37:26;;;;;;;4.90;3.70;;;;;;;12.91;73.41;99815.39;105874;1254;99304;-78